Temp: 4.0°C   Baro: 1034.2mb
  Wind: 0.0mph   Dir: SSW (196°)
  Rain: 0.0mm (0.0mm/hr)
  Solar: 0W/m2  Hum: 85%

Historic data

Bath Spa Weather Station Historical Data
Daily Summary for October 6, 2021 Units:  English    Metric   Both
Daily Weekly Monthly Yearly Custom
  High: Low: Average:
Temperature: 61.2 °F 48.6 °F 54.5 °F
Dew Point: 52.9 °F 45.7 °F 49.3 °F
Humidity: 88% 69.2% 80%
Wind Speed: 11.8mph 0mph 4.1mph
Wind Gust: 19mph - -
Wind- - WNW
Pressure: 30.25 in 29.95 in -
Precipitation: 0.00 in    
Historical Graphs
 
 
Tabular Data for October 6, 2021
Time Temperature Dew Point Pressure Wind Wind Speed Wind Gust Humidity Rainfall Rate (Hourly) solar
00:09 50.5 °F 47.5 °F 29.95 in WNW 3.8 mph 8 mph 86% 0.00 in 0 W/m2
00:14 50.5 °F 47.5 °F 29.95 in WNW 4 mph 8 mph 86% 0.00 in 0 W/m2
00:19 50.7 °F 47.5 °F 29.95 in WNW 5.2 mph 8 mph 86% 0.00 in 0 W/m2
00:24 50.8 °F 47.6 °F 29.95 in NW 4.8 mph 11 mph 86% 0.00 in 0 W/m2
00:29 51 °F 47.8 °F 29.95 in WNW 4.8 mph 10 mph 86% 0.00 in 0 W/m2
00:34 51.1 °F 47.8 °F 29.96 in WNW 4.5 mph 11 mph 86% 0.00 in 0 W/m2
00:39 51.1 °F 47.8 °F 29.96 in WNW 5.4 mph 9 mph 85.8% 0.00 in 0 W/m2
00:44 50.9 °F 47.7 °F 29.96 in WNW 4 mph 8 mph 86% 0.00 in 0 W/m2
00:49 50.7 °F 47.5 °F 29.96 in WNW 3.7 mph 7 mph 86% 0.00 in 0 W/m2
00:54 50.7 °F 47.5 °F 29.96 in WNW 4.1 mph 10 mph 86% 0.00 in 0 W/m2
00:59 50.7 °F 47.5 °F 29.96 in WNW 3.6 mph 10 mph 86% 0.00 in 0 W/m2
01:04 50.7 °F 47.5 °F 29.96 in WNW 5.8 mph 9 mph 86% 0.00 in 0 W/m2
01:09 50.7 °F 47.5 °F 29.96 in WNW 4.3 mph 9 mph 86% 0.00 in 0 W/m2
01:14 50.7 °F 47.5 °F 29.96 in WNW 5.2 mph 8 mph 86% 0.00 in 0 W/m2
01:19 50.6 °F 47.5 °F 29.97 in WNW 3.9 mph 7 mph 86% 0.00 in 0 W/m2
01:24 50.5 °F 47.5 °F 29.97 in WNW 3.8 mph 7 mph 86% 0.00 in 0 W/m2
01:29 50.5 °F 47.5 °F 29.97 in WNW 5 mph 10 mph 86% 0.00 in 0 W/m2
01:34 50.7 °F 47.5 °F 29.97 in WNW 5.8 mph 10 mph 86% 0.00 in 0 W/m2
01:39 50.7 °F 47.5 °F 29.98 in WNW 4.8 mph 9 mph 86% 0.00 in 0 W/m2
01:44 50.7 °F 47.5 °F 29.98 in WNW 6.9 mph 11 mph 86% 0.00 in 0 W/m2
01:49 50.9 °F 47.7 °F 29.98 in WNW 4.8 mph 11 mph 86% 0.00 in 0 W/m2
01:54 50.9 °F 47.7 °F 29.98 in WNW 6.8 mph 12 mph 86% 0.00 in 0 W/m2
01:59 51.1 °F 47.8 °F 29.98 in WNW 7 mph 12 mph 86% 0.00 in 0 W/m2
02:04 50.9 °F 47.7 °F 29.98 in WNW 6.3 mph 10 mph 86% 0.00 in 0 W/m2
02:09 51 °F 47.8 °F 29.98 in WNW 7.6 mph 13 mph 86% 0.00 in 0 W/m2
02:14 51 °F 47.8 °F 29.99 in WNW 4.9 mph 11 mph 86% 0.00 in 0 W/m2
02:19 50.8 °F 47.6 °F 29.99 in WNW 6.1 mph 9 mph 86% 0.00 in 0 W/m2
02:24 50.7 °F 47.5 °F 29.99 in WNW 5.8 mph 10 mph 86% 0.00 in 0 W/m2
02:29 50.7 °F 47.5 °F 29.99 in WNW 4 mph 9 mph 86% 0.00 in 0 W/m2
02:34 50.7 °F 47.5 °F 29.99 in WNW 5.2 mph 9 mph 86% 0.00 in 0 W/m2
02:39 50.5 °F 47.5 °F 30.00 in WNW 4.6 mph 10 mph 86% 0.00 in 0 W/m2
02:44 50.5 °F 47.5 °F 30.00 in WNW 5.3 mph 9 mph 86% 0.00 in 0 W/m2
02:49 50.5 °F 47.5 °F 30.01 in WNW 5.4 mph 10 mph 86% 0.00 in 0 W/m2
02:54 50.5 °F 47.5 °F 30.01 in WNW 2.9 mph 7 mph 86% 0.00 in 0 W/m2
02:59 50.5 °F 47.5 °F 30.01 in WNW 4.4 mph 7 mph 86% 0.00 in 0 W/m2
03:04 50.5 °F 47.4 °F 30.01 in WNW 4.2 mph 7 mph 86% 0.00 in 0 W/m2
03:09 50.5 °F 47.5 °F 30.01 in WNW 4 mph 9 mph 86% 0.00 in 0 W/m2
03:14 50.5 °F 47.5 °F 30.01 in WNW 4.9 mph 9 mph 86% 0.00 in 0 W/m2
03:19 50.5 °F 47.5 °F 30.01 in WNW 4.1 mph 8 mph 86% 0.00 in 0 W/m2
03:24 50.4 °F 47.3 °F 30.01 in WNW 3.1 mph 8 mph 86% 0.00 in 0 W/m2
03:29 50.4 °F 47.3 °F 30.01 in WNW 3.2 mph 6 mph 86% 0.00 in 0 W/m2
03:34 50.4 °F 47.3 °F 30.01 in WNW 2.8 mph 5 mph 86% 0.00 in 0 W/m2
03:39 50.3 °F 47.2 °F 30.01 in WNW 2.9 mph 6 mph 86% 0.00 in 0 W/m2
03:44 50.2 °F 47.1 °F 30.01 in WNW 1.7 mph 4 mph 86% 0.00 in 0 W/m2
03:49 50.2 °F 47.1 °F 30.01 in WNW 1.7 mph 4 mph 86% 0.00 in 0 W/m2
03:54 49.9 °F 46.8 °F 30.01 in WNW 2.1 mph 4 mph 86% 0.00 in 0 W/m2
03:59 49.8 °F 46.8 °F 30.02 in WNW 2.4 mph 4 mph 86% 0.00 in 0 W/m2
04:04 49.8 °F 46.8 °F 30.02 in WNW 1.8 mph 3 mph 86% 0.00 in 0 W/m2
04:09 49.8 °F 46.8 °F 30.02 in WNW 1.6 mph 5 mph 86% 0.00 in 0 W/m2
04:14 49.6 °F 46.6 °F 30.01 in WNW 2.4 mph 5 mph 86% 0.00 in 0 W/m2
04:19 49.6 °F 46.6 °F 30.02 in WNW 1.7 mph 3 mph 86% 0.00 in 0 W/m2
04:24 49.6 °F 46.6 °F 30.02 in WNW 2 mph 4 mph 86% 0.00 in 0 W/m2
04:29 49.5 °F 46.5 °F 30.02 in WNW 2.5 mph 4 mph 86% 0.00 in 0 W/m2
04:34 49.3 °F 46.2 °F 30.02 in WNW 2.4 mph 4 mph 86% 0.00 in 0 W/m2
04:39 49.3 °F 46.2 °F 30.02 in WNW 1.8 mph 4 mph 86% 0.00 in 0 W/m2
04:44 49.3 °F 46.2 °F 30.03 in WNW 2.1 mph 4 mph 86% 0.00 in 0 W/m2
04:49 49.3 °F 46.2 °F 30.03 in WNW 1 mph 4 mph 86% 0.00 in 0 W/m2
04:54 49.2 °F 46.1 °F 30.03 in WNW 0.6 mph 3 mph 86% 0.00 in 0 W/m2
04:59 49 °F 45.9 °F 30.03 in WNW 1.2 mph 5 mph 86% 0.00 in 0 W/m2
05:04 48.7 °F 45.8 °F 30.03 in WNW 2.8 mph 5 mph 86.4% 0.00 in 0 W/m2
05:09 48.7 °F 45.9 °F 30.03 in WNW 3.2 mph 5 mph 87% 0.00 in 0 W/m2
05:14 48.9 °F 46 °F 30.03 in WNW 4 mph 8 mph 87% 0.00 in 0 W/m2
05:19 48.9 °F 46 °F 30.03 in WNW 4.1 mph 8 mph 87% 0.00 in 0 W/m2
05:24 48.9 °F 46 °F 30.03 in WNW 4.7 mph 8 mph 87% 0.00 in 0 W/m2
05:29 49.2 °F 46.3 °F 30.04 in WNW 4.9 mph 8 mph 87% 0.00 in 0 W/m2
05:34 49.3 °F 46.4 °F 30.04 in WNW 3.8 mph 5 mph 87% 0.00 in 0 W/m2
05:39 49.1 °F 46.1 °F 30.05 in WNW 3.8 mph 8 mph 86.4% 0.00 in 0 W/m2
05:44 49.1 °F 46 °F 30.05 in WNW 3.3 mph 8 mph 86% 0.00 in 0 W/m2
05:49 49 °F 46 °F 30.04 in WNW 3.7 mph 6 mph 86% 0.00 in 0 W/m2
05:54 48.9 °F 45.9 °F 30.04 in WNW 3.2 mph 6 mph 86% 0.00 in 0 W/m2
05:59 48.9 °F 45.9 °F 30.05 in WNW 3.1 mph 7 mph 86.6% 0.00 in 0 W/m2
06:04 48.9 °F 46 °F 30.05 in WNW 5.2 mph 8 mph 87% 0.00 in 0 W/m2
06:09 48.9 °F 46 °F 30.05 in WNW 4.5 mph 8 mph 86.8% 0.00 in 0 W/m2
06:14 48.9 °F 46 °F 30.05 in WNW 3.6 mph 8 mph 87% 0.00 in 0 W/m2
06:19 48.8 °F 45.9 °F 30.06 in WNW 5.4 mph 10 mph 87% 0.00 in 0 W/m2
06:24 48.9 °F 46 °F 30.06 in West 5.2 mph 9 mph 87% 0.00 in 0 W/m2
06:29 48.9 °F 46 °F 30.06 in West 4.8 mph 9 mph 87% 0.00 in 0 W/m2
06:34 49 °F 46.1 °F 30.06 in West 4.7 mph 9 mph 87% 0.00 in 0 W/m2
06:39 49 °F 46.1 °F 30.06 in West 3.8 mph 7 mph 87% 0.00 in 0 W/m2
06:44 48.9 °F 46 °F 30.06 in West 5.1 mph 10 mph 87% 0.00 in 0 W/m2
06:49 48.9 °F 46 °F 30.07 in West 4.9 mph 8 mph 87% 0.00 in 0 W/m2
06:54 48.9 °F 46 °F 30.07 in West 4 mph 7 mph 87% 0.00 in 0 W/m2
06:59 48.8 °F 45.9 °F 30.07 in West 3.8 mph 7 mph 87% 0.00 in 0 W/m2
07:04 48.7 °F 45.9 °F 30.07 in West 4.6 mph 7 mph 87% 0.00 in 0 W/m2
07:09 48.7 °F 45.9 °F 30.07 in West 3.5 mph 7 mph 87% 0.00 in 0 W/m2
07:14 48.6 °F 45.8 °F 30.07 in West 2.1 mph 7 mph 87% 0.00 in 0 W/m2
07:19 48.6 °F 45.8 °F 30.08 in West 4.2 mph 7 mph 87% 0.00 in 5 W/m2
07:24 48.7 °F 45.9 °F 30.09 in West 4.1 mph 7 mph 87% 0.00 in 7 W/m2
07:29 48.7 °F 45.9 °F 30.09 in West 4.4 mph 7 mph 87% 0.00 in 7 W/m2
07:34 48.7 °F 45.9 °F 30.09 in West 4.2 mph 8 mph 87% 0.00 in 11 W/m2
07:38 48.6 °F 45.7 °F 30.09 in West 4.5 mph 7 mph 87% 0.00 in 12 W/m2
07:44 48.6 °F 45.8 °F 30.09 in West 5 mph 8 mph 87% 0.00 in 14 W/m2
07:49 48.8 °F 45.9 °F 30.09 in West 5.8 mph 9 mph 87% 0.00 in 16 W/m2
07:54 49.2 °F 46.3 °F 30.10 in West 4.9 mph 9 mph 87% 0.00 in 18 W/m2
07:59 49.3 °F 46.3 °F 30.10 in West 3.1 mph 7 mph 86.4% 0.00 in 19 W/m2
08:04 49.3 °F 46.2 °F 30.10 in West 4 mph 7 mph 86% 0.00 in 19 W/m2
08:09 49.5 °F 46.4 °F 30.10 in West 4.4 mph 8 mph 86% 0.00 in 21 W/m2
08:14 49.6 °F 46.6 °F 30.10 in West 4.5 mph 10 mph 86% 0.00 in 23 W/m2
08:19 49.8 °F 46.8 °F 30.10 in West 4.4 mph 10 mph 86% 0.00 in 25 W/m2
08:24 50 °F 46.9 °F 30.10 in West 5.5 mph 9 mph 86% 0.00 in 26 W/m2
08:29 50.1 °F 47 °F 30.11 in West 5.4 mph 9 mph 86% 0.00 in 30 W/m2
08:34 50.3 °F 47.1 °F 30.11 in West 4.9 mph 10 mph 85.8% 0.00 in 32 W/m2
08:39 50.5 °F 47.1 °F 30.11 in WNW 6.4 mph 11 mph 85% 0.00 in 42 W/m2
08:44 50.9 °F 47.5 °F 30.11 in WNW 4.1 mph 11 mph 85% 0.00 in 53 W/m2
08:49 51.3 °F 47.8 °F 30.12 in WNW 5.2 mph 11 mph 84.8% 0.00 in 70 W/m2
08:54 51.8 °F 48 °F 30.12 in WNW 4.1 mph 7 mph 84% 0.00 in 90 W/m2
08:59 52.2 °F 48.2 °F 30.13 in WNW 4 mph 7 mph 83.4% 0.00 in 109 W/m2
09:04 52.3 °F 48.2 °F 30.13 in WNW 3.7 mph 7 mph 82.8% 0.00 in 120 W/m2
09:09 52.7 °F 48.2 °F 30.13 in WNW 3.3 mph 7 mph 82% 0.00 in 127 W/m2
09:14 52.9 °F 48.4 °F 30.14 in WNW 6 mph 8 mph 82% 0.00 in 137 W/m2
09:19 53 °F 48.5 °F 30.14 in WNW 4.3 mph 8 mph 82% 0.00 in 155 W/m2
09:24 53.3 °F 48.6 °F 30.14 in WNW 5 mph 9 mph 81.5% 0.00 in 171 W/m2
09:29 53.4 °F 48.7 °F 30.14 in WNW 4.3 mph 8 mph 81.2% 0.00 in 188 W/m2
09:34 53.6 °F 48.6 °F 30.14 in West 6.3 mph 10 mph 80.6% 0.00 in 206 W/m2
09:39 53.7 °F 48.5 °F 30.14 in WNW 6 mph 11 mph 80% 0.00 in 241 W/m2
09:44 54 °F 48.7 °F 30.14 in WNW 5 mph 10 mph 79.8% 0.00 in 265 W/m2
09:49 54.3 °F 48.7 °F 30.14 in West 5.3 mph 10 mph 79% 0.00 in 258 W/m2
09:54 54.6 °F 48.9 °F 30.14 in WNW 7.6 mph 12 mph 78.6% 0.00 in 265 W/m2
09:59 54.8 °F 48.9 °F 30.14 in West 4.8 mph 10 mph 78% 0.00 in 276 W/m2
10:04 55 °F 49.1 °F 30.15 in WNW 5.7 mph 11 mph 77.8% 0.00 in 288 W/m2
10:09 55 °F 48.9 °F 30.15 in WNW 4.9 mph 11 mph 77% 0.00 in 301 W/m2
10:14 55.2 °F 48.8 °F 30.15 in WNW 6.2 mph 14 mph 76.2% 0.00 in 315 W/m2
10:19 55.2 °F 48.6 °F 30.16 in WNW 7 mph 12 mph 75.8% 0.00 in 338 W/m2
10:24 55.2 °F 48.5 °F 30.16 in WNW 6.3 mph 14 mph 75.2% 0.00 in 352 W/m2
10:29 55.4 °F 48.7 °F 30.16 in WNW 4.7 mph 13 mph 75.6% 0.00 in 408 W/m2
10:34 55.9 °F 49.1 °F 30.16 in WNW 6.7 mph 13 mph 75.4% 0.00 in 445 W/m2
10:39 56 °F 48.6 °F 30.16 in WNW 9.1 mph 15 mph 74% 0.00 in 269 W/m2
10:44 55.8 °F 48.4 °F 30.16 in NW 5.6 mph 16 mph 73.8% 0.00 in 427 W/m2
10:49 56.1 °F 48.6 °F 30.16 in WNW 7 mph 11 mph 73.8% 0.00 in 264 W/m2
10:54 56.3 °F 48.9 °F 30.16 in WNW 4.5 mph 11 mph 74% 0.00 in 445 W/m2
10:59 56.7 °F 49 °F 30.16 in WNW 7 mph 12 mph 73.2% 0.00 in 445 W/m2
11:04 57 °F 49.1 °F 30.16 in WNW 7 mph 13 mph 72.6% 0.00 in 461 W/m2
11:09 57 °F 49 °F 30.16 in West 7 mph 12 mph 72.2% 0.00 in 483 W/m2
11:14 57.4 °F 49.5 °F 30.16 in WNW 5.6 mph 11 mph 72.6% 0.00 in 554 W/m2
11:19 57.3 °F 49 °F 30.16 in WNW 7.7 mph 15 mph 71.3% 0.00 in 554 W/m2
11:24 57.3 °F 49 °F 30.17 in WNW 8.1 mph 15 mph 71.6% 0.00 in 543 W/m2
11:29 57.6 °F 48.9 °F 30.17 in WNW 10.2 mph 16 mph 70.4% 0.00 in 531 W/m2
11:34 57.8 °F 49 °F 30.17 in WNW 6 mph 13 mph 70% 0.00 in 552 W/m2
11:39 57.7 °F 49 °F 30.17 in NW 5 mph 14 mph 70.4% 0.00 in 552 W/m2
11:44 58.2 °F 49.4 °F 30.17 in West 8.2 mph 13 mph 70% 0.00 in 497 W/m2
11:49 57.9 °F 49 °F 30.17 in NW 5.4 mph 17 mph 69.8% 0.00 in 504 W/m2
11:54 58.1 °F 49.1 °F 30.18 in WNW 8.6 mph 17 mph 69.6% 0.00 in 504 W/m2
11:59 57.9 °F 48.9 °F 30.17 in WNW 7.9 mph 13 mph 69.4% 0.00 in 304 W/m2
12:04 57.7 °F 48.9 °F 30.17 in NW 7.4 mph 18 mph 69.8% 0.00 in 434 W/m2
12:09 57.7 °F 48.8 °F 30.17 in NW 8 mph 15 mph 69.4% 0.00 in 330 W/m2
12:14 57.6 °F 48.7 °F 30.17 in NW 7.8 mph 15 mph 70% 0.00 in 267 W/m2
12:19 57.6 °F 48.9 °F 30.18 in NW 7 mph 13 mph 70.4% 0.00 in 374 W/m2
12:24 57.7 °F 48.9 °F 30.18 in NW 6.6 mph 14 mph 70% 0.00 in 388 W/m2
12:29 58.2 °F 49.4 °F 30.18 in NW 5.8 mph 11 mph 70% 0.00 in 367 W/m2
12:34 58.2 °F 49.3 °F 30.18 in WNW 5.8 mph 14 mph 69.8% 0.00 in 301 W/m2
12:39 57.8 °F 49 °F 30.18 in WNW 7.2 mph 14 mph 70% 0.00 in 232 W/m2
12:44 57.9 °F 49.5 °F 30.18 in WNW 4.6 mph 9 mph 71% 0.00 in 185 W/m2
12:49 57.9 °F 49.2 °F 30.18 in WNW 6.7 mph 9 mph 70.2% 0.00 in 241 W/m2
12:54 57.9 °F 49.1 °F 30.19 in West 6.4 mph 12 mph 70% 0.00 in 292 W/m2
12:59 58.1 °F 49.6 °F 30.19 in NW 4.7 mph 11 mph 71% 0.00 in 257 W/m2
13:04 58.3 °F 50 °F 30.18 in WNW 5 mph 9 mph 71.4% 0.00 in 287 W/m2
13:09 58.5 °F 50.4 °F 30.19 in WNW 5.1 mph 10 mph 72% 0.00 in 323 W/m2
13:14 58.3 °F 50.2 °F 30.19 in WNW 6.6 mph 12 mph 71.8% 0.00 in 220 W/m2
13:19 58.4 °F 50.2 °F 30.19 in WNW 5.7 mph 12 mph 71.6% 0.00 in 381 W/m2
13:24 58.7 °F 50.4 °F 30.19 in WNW 7.2 mph 12 mph 71.4% 0.00 in 432 W/m2
13:29 59.1 °F 50.7 °F 30.19 in West 8.2 mph 14 mph 71.3% 0.00 in 478 W/m2
13:34 59.5 °F 51.1 °F 30.19 in WNW 8.9 mph 14 mph 71.2% 0.00 in 468 W/m2
13:39 59.4 °F 51 °F 30.20 in WNW 7.6 mph 14 mph 71% 0.00 in 554 W/m2
13:44 59.4 °F 50.8 °F 30.19 in WNW 10.4 mph 17 mph 70.8% 0.00 in 508 W/m2
13:49 59.4 °F 51 °F 30.19 in WNW 9.8 mph 18 mph 71% 0.00 in 499 W/m2
13:54 59.5 °F 50.5 °F 30.19 in NW 9.1 mph 18 mph 70% 0.00 in 494 W/m2
13:59 59.4 °F 50.7 °F 30.19 in WNW 7.3 mph 15 mph 70.4% 0.00 in 406 W/m2
14:04 59.6 °F 51.1 °F 30.19 in West 7.8 mph 13 mph 71% 0.00 in 480 W/m2
14:09 59.5 °F 51.1 °F 30.19 in West 6.8 mph 15 mph 71% 0.00 in 436 W/m2
14:14 59 °F 50.7 °F 30.19 in WNW 10.2 mph 18 mph 71.4% 0.00 in 427 W/m2
14:19 58.8 °F 50.7 °F 30.19 in NW 11.8 mph 19 mph 72% 0.00 in 582 W/m2
14:24 59.4 °F 51.2 °F 30.19 in WNW 7.2 mph 15 mph 71.6% 0.00 in 338 W/m2
14:29 59 °F 50.6 °F 30.19 in WNW 9.8 mph 15 mph 71.2% 0.00 in 199 W/m2
14:34 58.7 °F 50.6 °F 30.19 in West 10.9 mph 16 mph 72% 0.00 in 230 W/m2
14:39 58.6 °F 50.5 °F 30.19 in West 11.8 mph 17 mph 72% 0.00 in 339 W/m2
14:44 59 °F 51.1 °F 30.19 in WNW 8.9 mph 16 mph 72.6% 0.00 in 369 W/m2
14:49 59.2 °F 51.3 °F 30.20 in WNW 6.2 mph 15 mph 72.8% 0.00 in 359 W/m2
14:54 59.2 °F 51.4 °F 30.19 in WNW 6.1 mph 12 mph 72.8% 0.00 in 392 W/m2
14:59 59.5 °F 51.7 °F 30.19 in NW 7.8 mph 13 mph 73% 0.00 in 323 W/m2
15:04 59.5 °F 51.6 °F 30.19 in NW 6 mph 14 mph 72.4% 0.00 in 397 W/m2
15:09 59.9 °F 51.6 °F 30.19 in WNW 8.4 mph 16 mph 71.6% 0.00 in 397 W/m2
15:14 59.9 °F 51.3 °F 30.19 in WNW 11.6 mph 14 mph 71% 0.00 in 499 W/m2
15:19 60 °F 51.3 °F 30.19 in WNW 8.8 mph 15 mph 71% 0.00 in 496 W/m2
15:24 60.4 °F 51.7 °F 30.19 in WNW 6.3 mph 15 mph 71% 0.00 in 487 W/m2
15:29 60.4 °F 51.4 °F 30.19 in West 6.7 mph 14 mph 70% 0.00 in 468 W/m2
15:34 60.6 °F 51.6 °F 30.19 in West 9.2 mph 13 mph 70% 0.00 in 457 W/m2
15:39 60.8 °F 51.8 °F 30.20 in West 8.7 mph 13 mph 70% 0.00 in 431 W/m2
15:44 61 °F 52 °F 30.20 in WNW 8 mph 15 mph 70% 0.00 in 439 W/m2
15:49 60.5 °F 51.3 °F 30.20 in NW 8.2 mph 15 mph 69.2% 0.00 in 424 W/m2
15:54 60.6 °F 51.5 °F 30.20 in WNW 7.4 mph 14 mph 69.6% 0.00 in 378 W/m2
15:59 60.6 °F 51.6 °F 30.20 in NW 7.4 mph 12 mph 70% 0.00 in 367 W/m2
16:04 60.5 °F 51.6 °F 30.20 in WNW 9.8 mph 16 mph 70.4% 0.00 in 367 W/m2
16:09 60.7 °F 52.1 °F 30.20 in WNW 5.8 mph 16 mph 71% 0.00 in 404 W/m2
16:14 61 °F 52.1 °F 30.20 in WNW 5.8 mph 11 mph 70.4% 0.00 in 327 W/m2
16:19 60.4 °F 51.7 °F 30.20 in WNW 7.5 mph 11 mph 70.6% 0.00 in 211 W/m2
16:24 60.2 °F 51.5 °F 30.20 in WNW 6 mph 12 mph 71% 0.00 in 348 W/m2
16:29 60.5 °F 51.8 °F 30.20 in West 7.2 mph 12 mph 71% 0.00 in 366 W/m2
16:34 60.7 °F 52.1 °F 30.20 in WNW 6.2 mph 11 mph 71% 0.00 in 345 W/m2
16:39 60.6 °F 51.9 °F 30.21 in West 6.8 mph 11 mph 70.8% 0.00 in 279 W/m2
16:44 60.5 °F 51.9 °F 30.21 in West 4.5 mph 10 mph 71% 0.00 in 311 W/m2
16:49 60.9 °F 52.5 °F 30.21 in West 2.7 mph 5 mph 71.8% 0.00 in 251 W/m2
16:54 61.2 °F 52.9 °F 30.21 in West 4.8 mph 9 mph 72% 0.00 in 253 W/m2
16:59 61 °F 52.7 °F 30.21 in West 3.2 mph 7 mph 72% 0.00 in 236 W/m2
17:04 60.9 °F 52.9 °F 30.21 in West 4.8 mph 7 mph 72.8% 0.00 in 171 W/m2
17:09 60.6 °F 52.7 °F 30.21 in West 6.5 mph 9 mph 73% 0.00 in 214 W/m2
17:14 60.8 °F 52.8 °F 30.21 in West 6.8 mph 10 mph 72.8% 0.00 in 200 W/m2
17:19 60.6 °F 52.2 °F 30.21 in WNW 6 mph 15 mph 71.6% 0.00 in 192 W/m2
17:24 60.6 °F 52.1 °F 30.21 in WNW 5.4 mph 10 mph 71.2% 0.00 in 148 W/m2
17:29 60.4 °F 51.6 °F 30.22 in WNW 5.2 mph 10 mph 70.6% 0.00 in 120 W/m2
17:34 60.1 °F 51.4 °F 30.22 in West 4 mph 10 mph 71% 0.00 in 74 W/m2
17:39 59.7 °F 51.2 °F 30.22 in West 3.4 mph 9 mph 71.2% 0.00 in 39 W/m2
17:44 59.1 °F 51 °F 30.22 in West 3.7 mph 7 mph 72% 0.00 in 28 W/m2
17:49 58.6 °F 50.7 °F 30.22 in West 1.7 mph 8 mph 72.6% 0.00 in 25 W/m2
17:54 58.5 °F 50.7 °F 30.22 in West 2.5 mph 4 mph 73% 0.00 in 25 W/m2
17:59 58.3 °F 50.6 °F 30.22 in West 0.8 mph 3 mph 73.2% 0.00 in 19 W/m2
18:04 58.2 °F 50.7 °F 30.22 in West 0.4 mph 2 mph 73.6% 0.00 in 18 W/m2
18:09 58 °F 50.6 °F 30.22 in Calm     74% 0.00 in 18 W/m2
18:14 57.9 °F 50.5 °F 30.22 in Calm     74% 0.00 in 14 W/m2
18:19 57.9 °F 50.7 °F 30.23 in Calm     74.4% 0.00 in 14 W/m2
18:23 57.8 °F 50.8 °F 30.23 in Calm     75% 0.00 in 12 W/m2
18:29 57.6 °F 50.5 °F 30.23 in West 0.6 mph 3 mph 75.2% 0.00 in 11 W/m2
18:34 57.4 °F 50.7 °F 30.23 in West 1.8 mph 4 mph 76% 0.00 in 11 W/m2
18:39 57.2 °F 50.9 °F 30.23 in West 2 mph 3 mph 77% 0.00 in 5 W/m2
18:44 57 °F 50.7 °F 30.23 in West 0.4 mph 3 mph 77% 0.00 in 0 W/m2
18:49 57 °F 50.7 °F 30.23 in West 1 mph 2 mph 77% 0.00 in 0 W/m2
18:54 57 °F 50.7 °F 30.23 in West 0.6 mph 3 mph 77% 0.00 in 0 W/m2
18:59 57 °F 50.9 °F 30.24 in West 0.8 mph 3 mph 77.6% 0.00 in 0 W/m2
19:04 57 °F 51.1 °F 30.24 in Calm     78% 0.00 in 0 W/m2
19:09 57.1 °F 51.2 °F 30.24 in Calm     78% 0.00 in 0 W/m2
19:14 57.1 °F 51.2 °F 30.24 in West 0.4 mph 2 mph 78% 0.00 in 0 W/m2
19:19 57 °F 51.2 °F 30.24 in West 0.6 mph 2 mph 78.4% 0.00 in 0 W/m2
19:24 56.9 °F 51.3 °F 30.24 in Calm     79% 0.00 in 0 W/m2
19:29 56.9 °F 51.3 °F 30.24 in Calm     79% 0.00 in 0 W/m2
19:34 56.9 °F 51.3 °F 30.24 in Calm     79% 0.00 in 0 W/m2
19:39 56.8 °F 51.3 °F 30.24 in Calm     79% 0.00 in 0 W/m2
19:44 56.8 °F 51.4 °F 30.24 in Calm     79.2% 0.00 in 0 W/m2
19:49 56.8 °F 51.6 °F 30.24 in Calm     80% 0.00 in 0 W/m2
19:54 56.7 °F 51.4 °F 30.24 in Calm     80% 0.00 in 0 W/m2
19:59 56.7 °F 51.8 °F 30.24 in Calm   1 mph 81% 0.00 in 0 W/m2
20:04 56.7 °F 51.8 °F 30.24 in West 0.2 mph 2 mph 81% 0.00 in 0 W/m2
20:09 56.5 °F 51.6 °F 30.24 in West 0.2 mph 1 mph 81% 0.00 in 0 W/m2
20:14 56.5 °F 51.9 °F 30.24 in West 0.4 mph 2 mph 81.8% 0.00 in 0 W/m2
20:19 56.5 °F 52 °F 30.24 in Calm   1 mph 82% 0.00 in 0 W/m2
20:24 56.5 °F 52 °F 30.24 in Calm     82% 0.00 in 0 W/m2
20:29 56.5 °F 52 °F 30.24 in Calm     82% 0.00 in 0 W/m2
20:34 56.5 °F 52.3 °F 30.24 in Calm     83% 0.00 in 0 W/m2
20:39 56.5 °F 52.3 °F 30.24 in Calm     83% 0.00 in 0 W/m2
20:44 56.5 °F 52.3 °F 30.24 in Calm     83% 0.00 in 0 W/m2
20:49 56.5 °F 52.3 °F 30.24 in Calm     83% 0.00 in 0 W/m2
20:54 56.5 °F 52.3 °F 30.24 in Calm     83% 0.00 in 0 W/m2
20:59 56.5 °F 52.3 °F 30.24 in Calm     83% 0.00 in 0 W/m2
21:04 56.3 °F 52.2 °F 30.24 in Calm     83% 0.00 in 0 W/m2
21:09 56.1 °F 52.1 °F 30.24 in Calm     83.6% 0.00 in 0 W/m2
21:14 56.1 °F 52.2 °F 30.24 in Calm     84% 0.00 in 0 W/m2
21:19 56.2 °F 52.2 °F 30.24 in Calm     84% 0.00 in 0 W/m2
21:24 56.3 °F 52.3 °F 30.24 in Calm     84% 0.00 in 0 W/m2
21:29 56.3 °F 52.3 °F 30.24 in Calm     84% 0.00 in 0 W/m2
21:34 56.1 °F 52.2 °F 30.24 in Calm     84% 0.00 in 0 W/m2
21:39 56.1 °F 52.2 °F 30.24 in Calm     84% 0.00 in 0 W/m2
21:44 56.1 °F 52.2 °F 30.24 in Calm     84% 0.00 in 0 W/m2
21:49 56.1 °F 52.2 °F 30.24 in Calm     84% 0.00 in 0 W/m2
21:54 56.1 °F 52.5 °F 30.24 in Calm     85% 0.00 in 0 W/m2
21:59 55.9 °F 52.2 °F 30.24 in West 1.6 mph 2 mph 84.8% 0.00 in 0 W/m2
22:04 55.8 °F 52.2 °F 30.24 in West 1.1 mph 2 mph 85% 0.00 in 0 W/m2
22:09 55.6 °F 52 °F 30.24 in West 1.8 mph 3 mph 85% 0.00 in 0 W/m2
22:14 55.3 °F 51.7 °F 30.24 in West 1.6 mph 3 mph 85% 0.00 in 0 W/m2
22:19 55 °F 51.6 °F 30.24 in West 0.7 mph 2 mph 85.5% 0.00 in 0 W/m2
22:24 54.9 °F 51.6 °F 30.24 in Calm   1 mph 86% 0.00 in 0 W/m2
22:29 54.8 °F 51.5 °F 30.24 in West 0.6 mph 2 mph 86% 0.00 in 0 W/m2
22:34 54.7 °F 51.4 °F 30.24 in West 2 mph 3 mph 86% 0.00 in 0 W/m2
22:39 54.4 °F 51.3 °F 30.24 in West 2 mph 3 mph 86.4% 0.00 in 0 W/m2
22:44 54.3 °F 51.4 °F 30.24 in West 0.4 mph 2 mph 87% 0.00 in 0 W/m2
22:49 54.3 °F 51.4 °F 30.24 in Calm     87% 0.00 in 0 W/m2
22:54 54.3 °F 51.4 °F 30.24 in Calm     87% 0.00 in 0 W/m2
22:58 54.2 °F 51.3 °F 30.25 in Calm     87% 0.00 in 0 W/m2
23:04 54.1 °F 51.3 °F 30.25 in Calm     87% 0.00 in 0 W/m2
23:09 54.1 °F 51.3 °F 30.25 in Calm     87% 0.00 in 0 W/m2
23:14 54.1 °F 51.3 °F 30.25 in Calm     87% 0.00 in 0 W/m2
23:19 54.2 °F 51.3 °F 30.25 in Calm     87% 0.00 in 0 W/m2
23:24 54.1 °F 51.4 °F 30.25 in Calm   1 mph 87.2% 0.00 in 0 W/m2
23:29 54.1 °F 51.6 °F 30.25 in Calm   1 mph 88% 0.00 in 0 W/m2
23:34 54.1 °F 51.6 °F 30.25 in Calm     88% 0.00 in 0 W/m2
23:39 54.1 °F 51.6 °F 30.25 in West 0.2 mph 2 mph 88% 0.00 in 0 W/m2
23:44 54.1 °F 51.6 °F 30.25 in Calm   2 mph 88% 0.00 in 0 W/m2
23:49 54.3 °F 51.8 °F 30.25 in Calm     88% 0.00 in 0 W/m2
23:54 54.3 °F 51.8 °F 30.25 in Calm     88% 0.00 in 0 W/m2
23:59 54.5 °F 52 °F 30.25 in West 1.3 mph 3 mph 88% 0.00 in 0 W/m2
Bath Spa Weather
Compliments of Weather Underground - 2 mb